Flight Track Log - Related Links

Times and Time Zones

All times are in EDT time to prevent confusion due to time zone crossing. See the N510SR flight status page for this flight to view local times or setup timezone preferences in your user account.

Time Position Orientation Groundspeed Altitude Reporting Facility
EDT Latitude Longitude Course Direction KTS MPH feet Rate Location/Type
Tue 11:55:27 AM 33.9461 -118.4494 266° West 186 214 1,400  Level Los Angeles Center
Tue 11:56:29 AM 33.9411 -118.5292 266° West 214 246 5,000 3,290 Climbing Los Angeles Center
Tue 11:57:31 AM 33.9356 -118.6142 266° West 255 293 8,200 2,806 Climbing Los Angeles Center
Tue 11:58:33 AM 33.9294 -118.7072 266° West 279 321 10,800 2,371 Climbing Los Angeles Center
Tue 11:59:35 AM 33.9206 -118.8300 265° West 344 396 13,100 2,565 Climbing Los Angeles Center
Tue 12:00:37 PM 33.9192 -118.9503 269° West 365 420 16,100 2,661 Climbing Los Angeles Center
Tue 12:01:39 PM 33.9797 -119.0514 306° West 376 433 18,600 2,118 Climbing Los Angeles Center
Tue 12:02:53 PM 34.0522 -119.1481 312° West 390 449 20,900 2,234 Climbing Los Angeles Center
Tue 12:03:56 PM 34.1406 -119.2689 311° West 402 463 23,700 2,400 Climbing Los Angeles Center
Tue 12:04:58 PM 34.2300 -119.3894 312° West 403 464 25,900 1,161 Climbing Los Angeles Center
Tue 12:06:00 PM 34.3214 -119.4886 318° Northwest 437 503 26,100 97 Climbing Los Angeles Center
Tue 12:07:02 PM 34.4122 -119.5908 317° Northwest 445 512 26,100 -48 Level Los Angeles Center
Tue 12:08:04 PM 34.5031 -119.6944 317° Northwest 449 517 26,000  Descending Los Angeles Center
Tue 12:09:06 PM 34.5956 -119.7983 317° Northwest 452 520 26,100  Climbing Los Angeles Center
Tue 12:10:08 PM 34.6919 -119.9053 318° Northwest 454 522 26,000 -48 Descending Los Angeles Center
Tue 12:11:10 PM 34.7831 -120.0092 317° Northwest 452 520 26,000 -290 Level Los Angeles Center
Tue 12:12:12 PM 34.8906 -120.1294 317° Northwest 447 514 25,400 -726 Descending Los Angeles Center
Tue 12:13:14 PM 34.9764 -120.2289 317° Northwest 436 502 24,500 -677 Descending Los Angeles Center
Tue 12:14:16 PM 35.0608 -120.3244 317° Northwest 424 488 24,000 -242 Descending Los Angeles Center
Tue 12:15:18 PM 35.1458 -120.4231 317° Northwest 423 487 24,000  Level Los Angeles Center
Tue 12:16:20 PM 35.2306 -120.5231 316° Northwest 426 490 24,000  Level Los Angeles Center
Tue 12:17:22 PM 35.3294 -120.6375 317° Northwest 426 490 24,000  Level Los Angeles Center
Tue 12:18:24 PM 35.4161 -120.7378 317° Northwest 430 495 24,000  Level Los Angeles Center
Tue 12:19:26 PM 35.4936 -120.8275 317° Northwest 385 443 24,000  Level Los Angeles Center
Tue 12:20:29 PM 35.5608 -120.9075 316° Northwest 344 396 24,000  Level Los Angeles Center
Tue 12:21:31 PM 35.6383 -120.9953 317° Northwest 333 383 24,000  Level Los Angeles Center
Tue 12:22:33 PM 35.7103 -121.0692 320° Northwest 336 387 24,000  Level Los Angeles Center
Tue 12:23:35 PM 35.7878 -121.1325 326° Northwest 334 384 24,000  Level Los Angeles Center
Tue 12:24:37 PM 35.8628 -121.1983 325° Northwest 331 381 24,000  Level Los Angeles Center
Tue 12:26:03 PM 35.9669 -121.2867 326° Northwest 325 374 24,000  Level Oakland Center
Tue 12:27:05 PM 36.0575 -121.3656 325° Northwest 329 379 24,000  Level Oakland Center
Tue 12:28:06 PM 36.1344 -121.4306 326° Northwest 333 383 24,000  Level Oakland Center
Tue 12:29:08 PM 36.2094 -121.4972 324° Northwest 333 383 24,000 -293 Level Oakland Center
Tue 12:30:09 PM 36.2861 -121.5633 325° Northwest 334 384 23,400 -1,377 Descending Oakland Center
Tue 12:31:10 PM 36.3600 -121.6258 326° Northwest 325 374 21,200 -1,659 Descending Oakland Center
Tue 12:32:12 PM 36.4311 -121.6867 325° Northwest 315 362 20,000 -585 Descending Oakland Center
Tue 12:33:13 PM 36.5003 -121.7506 323° Northwest 310 357 20,000  Level Oakland Center
Tue 12:34:15 PM 36.5719 -121.8139 325° Northwest 305 351 20,000 -585 Level Oakland Center
Tue 12:35:16 PM 36.6422 -121.8703 327° Northwest 301 346 18,800 -1,268 Descending Oakland Center
Tue 12:36:18 PM 36.7144 -121.9306 326° Northwest 309 356 17,400 -1,442 Descending Oakland Center
Tue 12:37:25 PM 36.8167 -121.9833 338° Northwest 324 373 15,700 -1,488 Descending Northern Cal TRACON
Tue 12:38:19 PM 36.9000 -122.0000 351° North 322 371 14,400 -1,421 Descending Northern Cal TRACON
Tue 12:39:19 PM 36.9833 -122.0333 342° North 313 360 13,000 -1,421 Descending Northern Cal TRACON
Tue 12:40:13 PM 37.0667 -122.0500 351° North 303 349 11,700 -1,526 Descending Northern Cal TRACON
Tue 12:41:13 PM 37.1500 -122.0667 351° North 299 344 10,100 -900 Descending Northern Cal TRACON
Tue 12:42:13 PM 37.2167 -122.0833 349° North 293 337 9,900 -1,050 Descending Northern Cal TRACON
Tue 12:43:13 PM 37.3000 -122.1167 342° North 283 326 8,000 -1,600 Descending Northern Cal TRACON
Tue 12:44:13 PM 37.3667 -122.1333 349° North 261 300 6,700 -1,350 Descending Northern Cal TRACON
Tue 12:45:13 PM 37.4333 -122.1500 349° North 244 281 5,300 -1,526 Descending Northern Cal TRACON
Tue 12:46:07 PM 37.5000 -122.1667 349° North 224 258 3,800 -1,368 Descending Northern Cal TRACON
Tue 12:47:07 PM 37.5500 -122.1833 345° North 190 219 2,700 -950 Descending Northern Cal TRACON
Tue 12:48:07 PM 37.5667 -122.2500 288° West 181 208 1,900 -850 Descending Northern Cal TRACON
Tue 12:49:07 PM 37.5833 -122.3000 293° West 168 193 1,000 -750 Descending Northern Cal TRACON
Tue 12:50:07 PM 37.6000 -122.3500 293° West 144 166 400 -467 Descending Northern Cal TRACON
Tue 12:50:37 PM 37.6122 -122.3622 322° Northwest 164 189 300 -200 Descending Oakland Center
Tue 12:52:00 PM 37.6167 -122.3667 322° Northwest  Level FlightAware Approximate

Login

Don't have an account? Register now (free) for customized features, flight alerts, and more!